sensor_id;sensor_type;location;lat;lon;timestamp;P1;durP1;ratioP1;P2;durP2;ratioP2
14342;SDS011;7255;53.596;9.960;2022-09-27T00:00:08;3.28;;;3.08;;
14342;SDS011;7255;53.596;9.960;2022-09-27T00:02:36;3.72;;;3.28;;
14342;SDS011;7255;53.596;9.960;2022-09-27T00:05:02;4.55;;;3.10;;
14342;SDS011;7255;53.596;9.960;2022-09-27T00:07:29;4.32;;;3.12;;
14342;SDS011;7255;53.596;9.960;2022-09-27T00:09:57;3.37;;;3.08;;
14342;SDS011;7255;53.596;9.960;2022-09-27T00:12:23;6.50;;;3.78;;
14342;SDS011;7255;53.596;9.960;2022-09-27T00:14:50;3.70;;;3.37;;
14342;SDS011;7255;53.596;9.960;2022-09-27T00:17:16;4.57;;;3.35;;
14342;SDS011;7255;53.596;9.960;2022-09-27T00:19:43;4.30;;;3.17;;
14342;SDS011;7255;53.596;9.960;2022-09-27T00:22:09;3.62;;;3.22;;
14342;SDS011;7255;53.596;9.960;2022-09-27T00:24:36;6.70;;;3.90;;
14342;SDS011;7255;53.596;9.960;2022-09-27T00:27:04;4.50;;;3.30;;
14342;SDS011;7255;53.596;9.960;2022-09-27T00:29:30;5.18;;;4.00;;
14342;SDS011;7255;53.596;9.960;2022-09-27T00:31:56;3.83;;;3.45;;
14342;SDS011;7255;53.596;9.960;2022-09-27T00:34:23;3.75;;;3.45;;
14342;SDS011;7255;53.596;9.960;2022-09-27T00:36:50;4.07;;;3.67;;
14342;SDS011;7255;53.596;9.960;2022-09-27T00:39:17;4.93;;;3.17;;
14342;SDS011;7255;53.596;9.960;2022-09-27T00:41:44;3.72;;;3.42;;
14342;SDS011;7255;53.596;9.960;2022-09-27T00:47:18;4.00;;;3.60;;
14342;SDS011;7255;53.596;9.960;2022-09-27T00:49:50;4.68;;;3.70;;
14342;SDS011;7255;53.596;9.960;2022-09-27T00:52:22;3.60;;;3.40;;
14342;SDS011;7255;53.596;9.960;2022-09-27T00:54:52;4.72;;;3.60;;
14342;SDS011;7255;53.596;9.960;2022-09-27T00:57:22;3.58;;;3.28;;
14342;SDS011;7255;53.596;9.960;2022-09-27T00:59:50;4.82;;;3.80;;
14342;SDS011;7255;53.596;9.960;2022-09-27T01:02:21;4.87;;;3.50;;
14342;SDS011;7255;53.596;9.960;2022-09-27T01:04:47;5.50;;;3.85;;
14342;SDS011;7255;53.596;9.960;2022-09-27T01:07:14;4.72;;;4.20;;
14342;SDS011;7255;53.596;9.960;2022-09-27T01:09:41;6.28;;;4.00;;
14342;SDS011;7255;53.596;9.960;2022-09-27T01:12:09;4.30;;;3.80;;
14342;SDS011;7255;53.596;9.960;2022-09-27T01:14:47;3.90;;;3.22;;
14342;SDS011;7255;53.596;9.960;2022-09-27T01:17:28;3.75;;;3.45;;
14342;SDS011;7255;53.596;9.960;2022-09-27T01:20:07;4.60;;;3.20;;
14342;SDS011;7255;53.596;9.960;2022-09-27T01:22:48;3.45;;;3.15;;
14342;SDS011;7255;53.596;9.960;2022-09-27T01:25:29;3.22;;;2.83;;
14342;SDS011;7255;53.596;9.960;2022-09-27T01:28:21;4.57;;;3.30;;
14342;SDS011;7255;53.596;9.960;2022-09-27T01:31:00;3.33;;;2.40;;
14342;SDS011;7255;53.596;9.960;2022-09-27T01:33:31;3.60;;;3.17;;
14342;SDS011;7255;53.596;9.960;2022-09-27T01:36:10;3.08;;;2.85;;
14342;SDS011;7255;53.596;9.960;2022-09-27T01:38:46;3.25;;;2.95;;
14342;SDS011;7255;53.596;9.960;2022-09-27T01:41:25;3.53;;;3.22;;
14342;SDS011;7255;53.596;9.960;2022-09-27T01:44:00;3.58;;;3.17;;
14342;SDS011;7255;53.596;9.960;2022-09-27T01:46:32;3.28;;;2.97;;
14342;SDS011;7255;53.596;9.960;2022-09-27T01:49:03;3.00;;;2.78;;
14342;SDS011;7255;53.596;9.960;2022-09-27T01:51:34;3.80;;;3.40;;
14342;SDS011;7255;53.596;9.960;2022-09-27T01:54:05;3.60;;;3.30;;
14342;SDS011;7255;53.596;9.960;2022-09-27T01:56:36;2.95;;;2.75;;
14342;SDS011;7255;53.596;9.960;2022-09-27T01:59:06;5.72;;;3.25;;
14342;SDS011;7255;53.596;9.960;2022-09-27T02:01:37;3.05;;;2.83;;
14342;SDS011;7255;53.596;9.960;2022-09-27T02:04:07;3.40;;;3.10;;
14342;SDS011;7255;53.596;9.960;2022-09-27T02:06:38;3.28;;;2.75;;
14342;SDS011;7255;53.596;9.960;2022-09-27T02:09:08;2.95;;;2.65;;
14342;SDS011;7255;53.596;9.960;2022-09-27T02:11:38;3.55;;;3.17;;
14342;SDS011;7255;53.596;9.960;2022-09-27T02:14:10;3.10;;;2.87;;
14342;SDS011;7255;53.596;9.960;2022-09-27T02:16:44;3.50;;;2.72;;
14342;SDS011;7255;53.596;9.960;2022-09-27T02:19:17;3.20;;;2.85;;
14342;SDS011;7255;53.596;9.960;2022-09-27T02:21:52;3.08;;;2.78;;
14342;SDS011;7255;53.596;9.960;2022-09-27T02:24:28;3.05;;;2.85;;
14342;SDS011;7255;53.596;9.960;2022-09-27T02:27:04;4.97;;;2.90;;
14342;SDS011;7255;53.596;9.960;2022-09-27T02:29:37;3.08;;;2.67;;
14342;SDS011;7255;53.596;9.960;2022-09-27T02:32:09;3.12;;;2.90;;
14342;SDS011;7255;53.596;9.960;2022-09-27T02:34:36;3.20;;;2.90;;
14342;SDS011;7255;53.596;9.960;2022-09-27T02:37:04;3.12;;;2.83;;
14342;SDS011;7255;53.596;9.960;2022-09-27T02:39:31;3.42;;;2.60;;
14342;SDS011;7255;53.596;9.960;2022-09-27T02:41:58;3.10;;;2.80;;
14342;SDS011;7255;53.596;9.960;2022-09-27T02:44:24;3.58;;;3.28;;
14342;SDS011;7255;53.596;9.960;2022-09-27T02:46:55;3.65;;;3.35;;
14342;SDS011;7255;53.596;9.960;2022-09-27T02:49:42;3.40;;;3.10;;
14342;SDS011;7255;53.596;9.960;2022-09-27T02:52:17;3.28;;;2.97;;
14342;SDS011;7255;53.596;9.960;2022-09-27T02:54:56;3.10;;;2.90;;
14342;SDS011;7255;53.596;9.960;2022-09-27T02:57:33;3.12;;;2.83;;
14342;SDS011;7255;53.596;9.960;2022-09-27T03:00:13;3.10;;;2.75;;
14342;SDS011;7255;53.596;9.960;2022-09-27T03:02:46;3.28;;;2.92;;
14342;SDS011;7255;53.596;9.960;2022-09-27T03:05:20;3.37;;;3.08;;
14342;SDS011;7255;53.596;9.960;2022-09-27T03:07:50;3.72;;;3.42;;
14342;SDS011;7255;53.596;9.960;2022-09-27T03:10:17;3.70;;;3.40;;
14342;SDS011;7255;53.596;9.960;2022-09-27T03:12:46;3.62;;;3.12;;
14342;SDS011;7255;53.596;9.960;2022-09-27T03:15:12;3.53;;;3.22;;
14342;SDS011;7255;53.596;9.960;2022-09-27T03:17:39;3.42;;;3.12;;
14342;SDS011;7255;53.596;9.960;2022-09-27T03:20:05;3.33;;;3.03;;
14342;SDS011;7255;53.596;9.960;2022-09-27T03:22:34;4.10;;;3.58;;
14342;SDS011;7255;53.596;9.960;2022-09-27T03:25:00;3.45;;;3.15;;
14342;SDS011;7255;53.596;9.960;2022-09-27T03:27:27;3.28;;;3.00;;
14342;SDS011;7255;53.596;9.960;2022-09-27T03:29:53;3.47;;;3.15;;
14342;SDS011;7255;53.596;9.960;2022-09-27T03:32:19;3.50;;;3.12;;
14342;SDS011;7255;53.596;9.960;2022-09-27T03:34:46;4.60;;;3.35;;
14342;SDS011;7255;53.596;9.960;2022-09-27T03:37:12;3.75;;;3.45;;
14342;SDS011;7255;53.596;9.960;2022-09-27T03:39:40;4.35;;;3.62;;
14342;SDS011;7255;53.596;9.960;2022-09-27T03:42:07;4.40;;;3.20;;
14342;SDS011;7255;53.596;9.960;2022-09-27T03:44:33;4.10;;;3.70;;
14342;SDS011;7255;53.596;9.960;2022-09-27T03:46:59;4.37;;;3.62;;
14342;SDS011;7255;53.596;9.960;2022-09-27T03:49:26;4.72;;;4.30;;
14342;SDS011;7255;53.596;9.960;2022-09-27T03:51:52;6.43;;;4.07;;
14342;SDS011;7255;53.596;9.960;2022-09-27T03:54:18;4.37;;;3.97;;
14342;SDS011;7255;53.596;9.960;2022-09-27T03:56:46;3.95;;;3.62;;
14342;SDS011;7255;53.596;9.960;2022-09-27T03:59:12;5.35;;;3.83;;
14342;SDS011;7255;53.596;9.960;2022-09-27T04:01:38;7.00;;;5.87;;
14342;SDS011;7255;53.596;9.960;2022-09-27T04:04:05;4.35;;;3.95;;
14342;SDS011;7255;53.596;9.960;2022-09-27T04:06:32;3.92;;;3.62;;
14342;SDS011;7255;53.596;9.960;2022-09-27T04:08:58;4.47;;;4.07;;
14342;SDS011;7255;53.596;9.960;2022-09-27T04:11:25;4.60;;;4.20;;
14342;SDS011;7255;53.596;9.960;2022-09-27T04:13:53;6.32;;;4.50;;
14342;SDS011;7255;53.596;9.960;2022-09-27T04:16:20;4.75;;;4.03;;
14342;SDS011;7255;53.596;9.960;2022-09-27T04:18:46;4.70;;;4.30;;
14342;SDS011;7255;53.596;9.960;2022-09-27T04:21:13;4.57;;;4.18;;
14342;SDS011;7255;53.596;9.960;2022-09-27T04:23:39;5.82;;;4.53;;
14342;SDS011;7255;53.596;9.960;2022-09-27T04:26:05;4.87;;;4.43;;
14342;SDS011;7255;53.596;9.960;2022-09-27T04:28:32;5.90;;;4.72;;
14342;SDS011;7255;53.596;9.960;2022-09-27T04:30:59;5.28;;;4.78;;
14342;SDS011;7255;53.596;9.960;2022-09-27T04:33:25;4.53;;;4.12;;
14342;SDS011;7255;53.596;9.960;2022-09-27T04:35:52;5.00;;;4.25;;
14342;SDS011;7255;53.596;9.960;2022-09-27T04:38:36;5.57;;;4.82;;
14342;SDS011;7255;53.596;9.960;2022-09-27T04:41:03;6.25;;;4.95;;
14342;SDS011;7255;53.596;9.960;2022-09-27T04:43:30;6.90;;;4.90;;
14342;SDS011;7255;53.596;9.960;2022-09-27T04:45:57;4.90;;;4.50;;
14342;SDS011;7255;53.596;9.960;2022-09-27T04:48:25;5.80;;;5.20;;
14342;SDS011;7255;53.596;9.960;2022-09-27T04:50:54;6.62;;;5.22;;
14342;SDS011;7255;53.596;9.960;2022-09-27T04:53:22;6.80;;;5.70;;
14342;SDS011;7255;53.596;9.960;2022-09-27T04:55:49;8.15;;;7.10;;
14342;SDS011;7255;53.596;9.960;2022-09-27T04:58:17;7.03;;;6.32;;
14342;SDS011;7255;53.596;9.960;2022-09-27T05:00:45;7.03;;;6.05;;
14342;SDS011;7255;53.596;9.960;2022-09-27T05:03:11;7.60;;;6.07;;
14342;SDS011;7255;53.596;9.960;2022-09-27T05:05:40;7.72;;;6.50;;
14342;SDS011;7255;53.596;9.960;2022-09-27T05:08:06;10.45;;;7.47;;
14342;SDS011;7255;53.596;9.960;2022-09-27T05:10:32;8.32;;;6.78;;
14342;SDS011;7255;53.596;9.960;2022-09-27T05:12:59;11.55;;;7.82;;
14342;SDS011;7255;53.596;9.960;2022-09-27T05:15:25;10.35;;;8.02;;
14342;SDS011;7255;53.596;9.960;2022-09-27T05:17:51;11.60;;;8.00;;
14342;SDS011;7255;53.596;9.960;2022-09-27T05:20:18;11.65;;;9.13;;
14342;SDS011;7255;53.596;9.960;2022-09-27T05:22:46;13.90;;;9.68;;
14342;SDS011;7255;53.596;9.960;2022-09-27T05:25:12;12.98;;;9.38;;
14342;SDS011;7255;53.596;9.960;2022-09-27T05:27:38;12.68;;;9.60;;
14342;SDS011;7255;53.596;9.960;2022-09-27T05:30:05;15.23;;;10.25;;
14342;SDS011;7255;53.596;9.960;2022-09-27T05:32:32;15.70;;;10.18;;
14342;SDS011;7255;53.596;9.960;2022-09-27T05:34:58;12.68;;;9.63;;
14342;SDS011;7255;53.596;9.960;2022-09-27T05:37:26;14.95;;;10.60;;
14342;SDS011;7255;53.596;9.960;2022-09-27T05:39:55;16.30;;;11.20;;
14342;SDS011;7255;53.596;9.960;2022-09-27T05:42:21;18.25;;;10.73;;
14342;SDS011;7255;53.596;9.960;2022-09-27T05:44:48;14.98;;;11.15;;
14342;SDS011;7255;53.596;9.960;2022-09-27T05:47:14;15.10;;;10.80;;
14342;SDS011;7255;53.596;9.960;2022-09-27T05:49:40;15.57;;;10.57;;
14342;SDS011;7255;53.596;9.960;2022-09-27T05:52:07;16.73;;;12.30;;
14342;SDS011;7255;53.596;9.960;2022-09-27T05:54:33;18.00;;;12.13;;
14342;SDS011;7255;53.596;9.960;2022-09-27T05:57:01;19.87;;;11.93;;
14342;SDS011;7255;53.596;9.960;2022-09-27T05:59:27;22.73;;;14.35;;
14342;SDS011;7255;53.596;9.960;2022-09-27T06:01:54;28.45;;;14.85;;
14342;SDS011;7255;53.596;9.960;2022-09-27T06:04:20;21.37;;;13.73;;
14342;SDS011;7255;53.596;9.960;2022-09-27T06:06:46;22.70;;;14.80;;
14342;SDS011;7255;53.596;9.960;2022-09-27T06:09:14;25.67;;;16.02;;
14342;SDS011;7255;53.596;9.960;2022-09-27T06:11:40;20.20;;;14.57;;
14342;SDS011;7255;53.596;9.960;2022-09-27T06:14:10;24.20;;;16.45;;
14342;SDS011;7255;53.596;9.960;2022-09-27T06:16:37;25.15;;;16.10;;
14342;SDS011;7255;53.596;9.960;2022-09-27T06:19:03;29.90;;;15.52;;
14342;SDS011;7255;53.596;9.960;2022-09-27T06:21:29;25.67;;;14.75;;
14342;SDS011;7255;53.596;9.960;2022-09-27T06:23:56;20.88;;;14.70;;
14342;SDS011;7255;53.596;9.960;2022-09-27T06:26:23;22.17;;;14.50;;
14342;SDS011;7255;53.596;9.960;2022-09-27T06:28:51;27.20;;;14.55;;
14342;SDS011;7255;53.596;9.960;2022-09-27T06:31:18;24.67;;;13.75;;
14342;SDS011;7255;53.596;9.960;2022-09-27T06:33:45;26.25;;;13.95;;
14342;SDS011;7255;53.596;9.960;2022-09-27T06:36:12;17.08;;;12.23;;
14342;SDS011;7255;53.596;9.960;2022-09-27T06:38:38;23.05;;;12.45;;
14342;SDS011;7255;53.596;9.960;2022-09-27T06:41:05;26.05;;;13.23;;
14342;SDS011;7255;53.596;9.960;2022-09-27T06:43:33;18.05;;;10.85;;
14342;SDS011;7255;53.596;9.960;2022-09-27T06:45:59;15.85;;;10.20;;
14342;SDS011;7255;53.596;9.960;2022-09-27T06:48:30;11.82;;;8.50;;
14342;SDS011;7255;53.596;9.960;2022-09-27T06:50:57;14.02;;;7.12;;
14342;SDS011;7255;53.596;9.960;2022-09-27T06:53:24;15.93;;;8.18;;
14342;SDS011;7255;53.596;9.960;2022-09-27T06:55:54;10.05;;;7.15;;
14342;SDS011;7255;53.596;9.960;2022-09-27T06:58:23;15.52;;;6.75;;
14342;SDS011;7255;53.596;9.960;2022-09-27T07:01:06;7.53;;;5.78;;
14342;SDS011;7255;53.596;9.960;2022-09-27T07:03:34;9.10;;;6.32;;
14342;SDS011;7255;53.596;9.960;2022-09-27T07:06:04;10.88;;;6.60;;
14342;SDS011;7255;53.596;9.960;2022-09-27T07:08:31;12.02;;;6.90;;
14342;SDS011;7255;53.596;9.960;2022-09-27T07:11:00;10.73;;;7.05;;
14342;SDS011;7255;53.596;9.960;2022-09-27T07:13:28;9.70;;;5.45;;
14342;SDS011;7255;53.596;9.960;2022-09-27T07:15:58;9.25;;;5.28;;
14342;SDS011;7255;53.596;9.960;2022-09-27T07:18:25;7.62;;;4.55;;
14342;SDS011;7255;53.596;9.960;2022-09-27T07:20:53;6.68;;;3.90;;
14342;SDS011;7255;53.596;9.960;2022-09-27T07:23:20;4.45;;;3.78;;
14342;SDS011;7255;53.596;9.960;2022-09-27T07:25:46;3.45;;;2.75;;
14342;SDS011;7255;53.596;9.960;2022-09-27T07:28:13;4.72;;;2.78;;
14342;SDS011;7255;53.596;9.960;2022-09-27T07:30:41;3.87;;;2.60;;
14342;SDS011;7255;53.596;9.960;2022-09-27T07:33:08;2.35;;;2.15;;
14342;SDS011;7255;53.596;9.960;2022-09-27T07:35:37;2.25;;;1.87;;
14342;SDS011;7255;53.596;9.960;2022-09-27T07:38:06;2.40;;;2.15;;
14342;SDS011;7255;53.596;9.960;2022-09-27T07:40:35;2.28;;;1.95;;
14342;SDS011;7255;53.596;9.960;2022-09-27T07:43:02;3.65;;;2.08;;
14342;SDS011;7255;53.596;9.960;2022-09-27T07:45:28;3.42;;;2.03;;
14342;SDS011;7255;53.596;9.960;2022-09-27T07:47:56;4.72;;;2.08;;
14342;SDS011;7255;53.596;9.960;2022-09-27T07:50:22;2.62;;;2.22;;
14342;SDS011;7255;53.596;9.960;2022-09-27T07:52:49;4.07;;;2.35;;
14342;SDS011;7255;53.596;9.960;2022-09-27T07:55:17;2.60;;;2.40;;
14342;SDS011;7255;53.596;9.960;2022-09-27T07:57:44;2.50;;;2.30;;
14342;SDS011;7255;53.596;9.960;2022-09-27T08:00:11;3.72;;;2.53;;
14342;SDS011;7255;53.596;9.960;2022-09-27T08:02:39;4.70;;;2.50;;
14342;SDS011;7255;53.596;9.960;2022-09-27T08:05:06;2.58;;;2.22;;
14342;SDS011;7255;53.596;9.960;2022-09-27T08:07:33;3.95;;;2.90;;
14342;SDS011;7255;53.596;9.960;2022-09-27T08:10:00;4.40;;;2.60;;
14342;SDS011;7255;53.596;9.960;2022-09-27T08:12:28;2.97;;;2.67;;
14342;SDS011;7255;53.596;9.960;2022-09-27T08:14:54;4.78;;;2.78;;
14342;SDS011;7255;53.596;9.960;2022-09-27T08:17:25;3.50;;;2.58;;
14342;SDS011;7255;53.596;9.960;2022-09-27T08:19:51;2.67;;;2.33;;
14342;SDS011;7255;53.596;9.960;2022-09-27T08:22:17;5.85;;;2.42;;
14342;SDS011;7255;53.596;9.960;2022-09-27T08:24:45;2.62;;;2.42;;
14342;SDS011;7255;53.596;9.960;2022-09-27T08:27:11;2.17;;;1.90;;
14342;SDS011;7255;53.596;9.960;2022-09-27T08:29:39;3.78;;;2.15;;
14342;SDS011;7255;53.596;9.960;2022-09-27T08:32:06;3.37;;;2.20;;
14342;SDS011;7255;53.596;9.960;2022-09-27T08:34:33;3.97;;;2.20;;
14342;SDS011;7255;53.596;9.960;2022-09-27T08:36:59;2.65;;;2.35;;
14342;SDS011;7255;53.596;9.960;2022-09-27T08:39:25;3.25;;;2.40;;
14342;SDS011;7255;53.596;9.960;2022-09-27T08:41:53;3.10;;;2.33;;
14342;SDS011;7255;53.596;9.960;2022-09-27T08:44:28;3.62;;;2.22;;
14342;SDS011;7255;53.596;9.960;2022-09-27T08:47:05;4.30;;;2.15;;
14342;SDS011;7255;53.596;9.960;2022-09-27T08:49:40;4.25;;;2.78;;
14342;SDS011;7255;53.596;9.960;2022-09-27T08:52:12;3.65;;;2.80;;
14342;SDS011;7255;53.596;9.960;2022-09-27T08:54:45;5.43;;;2.70;;
14342;SDS011;7255;53.596;9.960;2022-09-27T08:57:12;2.67;;;2.45;;
14342;SDS011;7255;53.596;9.960;2022-09-27T08:59:40;6.37;;;3.08;;
14342;SDS011;7255;53.596;9.960;2022-09-27T09:02:12;4.20;;;2.40;;
14342;SDS011;7255;53.596;9.960;2022-09-27T09:04:43;2.80;;;2.25;;
14342;SDS011;7255;53.596;9.960;2022-09-27T09:07:18;3.45;;;2.10;;
14342;SDS011;7255;53.596;9.960;2022-09-27T09:10:01;2.15;;;1.92;;
14342;SDS011;7255;53.596;9.960;2022-09-27T09:12:34;2.60;;;2.40;;
14342;SDS011;7255;53.596;9.960;2022-09-27T09:18:21;3.10;;;2.47;;
14342;SDS011;7255;53.596;9.960;2022-09-27T09:20:57;2.90;;;2.60;;
14342;SDS011;7255;53.596;9.960;2022-09-27T09:23:39;3.05;;;2.37;;
14342;SDS011;7255;53.596;9.960;2022-09-27T09:26:14;3.92;;;2.58;;
14342;SDS011;7255;53.596;9.960;2022-09-27T09:28:51;3.47;;;2.95;;
14342;SDS011;7255;53.596;9.960;2022-09-27T09:31:30;3.25;;;2.95;;
14342;SDS011;7255;53.596;9.960;2022-09-27T09:34:07;3.97;;;2.80;;
14342;SDS011;7255;53.596;9.960;2022-09-27T09:36:40;4.78;;;3.40;;
14342;SDS011;7255;53.596;9.960;2022-09-27T09:39:11;3.00;;;2.70;;
14342;SDS011;7255;53.596;9.960;2022-09-27T09:41:42;2.72;;;2.53;;
14342;SDS011;7255;53.596;9.960;2022-09-27T09:44:14;2.80;;;2.50;;
14342;SDS011;7255;53.596;9.960;2022-09-27T09:46:44;3.25;;;2.95;;
14342;SDS011;7255;53.596;9.960;2022-09-27T09:49:15;3.72;;;2.58;;
14342;SDS011;7255;53.596;9.960;2022-09-27T09:51:47;2.72;;;2.53;;
14342;SDS011;7255;53.596;9.960;2022-09-27T09:54:21;2.72;;;2.50;;
14342;SDS011;7255;53.596;9.960;2022-09-27T09:56:54;4.15;;;2.60;;
14342;SDS011;7255;53.596;9.960;2022-09-27T09:59:28;3.05;;;2.45;;
14342;SDS011;7255;53.596;9.960;2022-09-27T10:02:00;3.17;;;2.50;;
14342;SDS011;7255;53.596;9.960;2022-09-27T10:04:44;3.35;;;2.70;;
14342;SDS011;7255;53.596;9.960;2022-09-27T10:07:10;2.92;;;2.25;;
14342;SDS011;7255;53.596;9.960;2022-09-27T10:09:37;3.03;;;2.37;;
14342;SDS011;7255;53.596;9.960;2022-09-27T10:12:04;2.25;;;1.80;;
14342;SDS011;7255;53.596;9.960;2022-09-27T10:14:30;2.33;;;2.12;;
14342;SDS011;7255;53.596;9.960;2022-09-27T10:16:58;2.72;;;2.08;;
14342;SDS011;7255;53.596;9.960;2022-09-27T10:19:27;2.03;;;1.90;;
14342;SDS011;7255;53.596;9.960;2022-09-27T10:21:58;5.60;;;2.08;;
14342;SDS011;7255;53.596;9.960;2022-09-27T10:24:27;2.03;;;1.85;;
14342;SDS011;7255;53.596;9.960;2022-09-27T10:26:56;3.65;;;1.90;;
14342;SDS011;7255;53.596;9.960;2022-09-27T10:29:28;2.42;;;1.75;;
14342;SDS011;7255;53.596;9.960;2022-09-27T10:31:55;1.80;;;1.70;;
14342;SDS011;7255;53.596;9.960;2022-09-27T10:34:29;1.65;;;1.55;;
14342;SDS011;7255;53.596;9.960;2022-09-27T10:37:04;3.55;;;2.25;;
14342;SDS011;7255;53.596;9.960;2022-09-27T10:39:41;2.12;;;1.98;;
14342;SDS011;7255;53.596;9.960;2022-09-27T10:42:18;1.80;;;1.70;;
14342;SDS011;7255;53.596;9.960;2022-09-27T10:44:45;2.58;;;1.60;;
14342;SDS011;7255;53.596;9.960;2022-09-27T10:47:12;2.35;;;2.08;;
14342;SDS011;7255;53.596;9.960;2022-09-27T10:49:46;4.28;;;1.80;;
14342;SDS011;7255;53.596;9.960;2022-09-27T10:52:16;1.62;;;1.52;;
14342;SDS011;7255;53.596;9.960;2022-09-27T10:54:51;2.08;;;1.85;;
14342;SDS011;7255;53.596;9.960;2022-09-27T10:57:19;2.92;;;1.70;;
14342;SDS011;7255;53.596;9.960;2022-09-27T10:59:49;2.92;;;1.73;;
14342;SDS011;7255;53.596;9.960;2022-09-27T11:02:18;3.10;;;1.60;;
14342;SDS011;7255;53.596;9.960;2022-09-27T11:05:00;2.28;;;1.52;;
14342;SDS011;7255;53.596;9.960;2022-09-27T11:07:30;1.60;;;1.45;;
14342;SDS011;7255;53.596;9.960;2022-09-27T11:09:57;4.03;;;1.98;;
14342;SDS011;7255;53.596;9.960;2022-09-27T11:12:27;1.67;;;1.58;;
14342;SDS011;7255;53.596;9.960;2022-09-27T11:14:56;1.70;;;1.60;;
14342;SDS011;7255;53.596;9.960;2022-09-27T11:17:25;1.73;;;1.62;;
14342;SDS011;7255;53.596;9.960;2022-09-27T11:22:55;2.97;;;1.80;;
14342;SDS011;7255;53.596;9.960;2022-09-27T11:25:45;2.05;;;1.87;;
14342;SDS011;7255;53.596;9.960;2022-09-27T11:28:26;3.50;;;2.30;;
14342;SDS011;7255;53.596;9.960;2022-09-27T11:31:07;2.60;;;2.40;;
14342;SDS011;7255;53.596;9.960;2022-09-27T11:34:01;2.40;;;1.55;;
14342;SDS011;7255;53.596;9.960;2022-09-27T11:36:52;1.60;;;1.50;;
14342;SDS011;7255;53.596;9.960;2022-09-27T11:39:27;2.25;;;1.95;;
14342;SDS011;7255;53.596;9.960;2022-09-27T11:42:09;1.70;;;1.60;;
14342;SDS011;7255;53.596;9.960;2022-09-27T11:45:00;1.65;;;1.55;;
14342;SDS011;7255;53.596;9.960;2022-09-27T11:47:41;2.75;;;1.30;;
14342;SDS011;7255;53.596;9.960;2022-09-27T11:50:15;2.20;;;1.65;;
14342;SDS011;7255;53.596;9.960;2022-09-27T11:53:08;1.90;;;1.80;;
14342;SDS011;7255;53.596;9.960;2022-09-27T11:55:46;4.32;;;1.50;;
14342;SDS011;7255;53.596;9.960;2022-09-27T11:58:20;3.22;;;1.80;;
14342;SDS011;7255;53.596;9.960;2022-09-27T12:00:59;2.95;;;1.77;;
14342;SDS011;7255;53.596;9.960;2022-09-27T12:03:45;2.17;;;1.65;;
14342;SDS011;7255;53.596;9.960;2022-09-27T12:06:28;1.80;;;1.70;;
14342;SDS011;7255;53.596;9.960;2022-09-27T12:09:06;2.67;;;1.92;;
14342;SDS011;7255;53.596;9.960;2022-09-27T12:11:39;1.90;;;1.80;;
14342;SDS011;7255;53.596;9.960;2022-09-27T12:14:09;1.70;;;1.60;;
14342;SDS011;7255;53.596;9.960;2022-09-27T12:16:41;1.95;;;1.80;;
14342;SDS011;7255;53.596;9.960;2022-09-27T12:19:10;1.83;;;1.73;;
14342;SDS011;7255;53.596;9.960;2022-09-27T12:21:43;2.53;;;1.80;;
14342;SDS011;7255;53.596;9.960;2022-09-27T12:24:13;2.45;;;1.40;;
14342;SDS011;7255;53.596;9.960;2022-09-27T12:26:46;2.22;;;1.60;;
14342;SDS011;7255;53.596;9.960;2022-09-27T12:29:17;3.30;;;1.35;;
14342;SDS011;7255;53.596;9.960;2022-09-27T12:31:50;1.77;;;1.37;;
14342;SDS011;7255;53.596;9.960;2022-09-27T12:34:24;1.37;;;1.27;;
14342;SDS011;7255;53.596;9.960;2022-09-27T12:36:58;3.37;;;1.80;;
14342;SDS011;7255;53.596;9.960;2022-09-27T12:39:32;1.98;;;1.42;;
14342;SDS011;7255;53.596;9.960;2022-09-27T12:42:11;2.10;;;1.50;;
14342;SDS011;7255;53.596;9.960;2022-09-27T12:44:42;2.47;;;1.50;;
14342;SDS011;7255;53.596;9.960;2022-09-27T12:47:10;2.40;;;1.45;;
14342;SDS011;7255;53.596;9.960;2022-09-27T12:49:47;2.03;;;1.30;;
14342;SDS011;7255;53.596;9.960;2022-09-27T12:52:23;1.52;;;1.40;;
14342;SDS011;7255;53.596;9.960;2022-09-27T12:55:00;2.78;;;1.40;;
14342;SDS011;7255;53.596;9.960;2022-09-27T12:57:46;1.35;;;1.20;;
14342;SDS011;7255;53.596;9.960;2022-09-27T13:00:25;1.52;;;1.25;;
14342;SDS011;7255;53.596;9.960;2022-09-27T13:03:19;1.40;;;1.20;;
14342;SDS011;7255;53.596;9.960;2022-09-27T13:06:07;1.30;;;1.20;;
14342;SDS011;7255;53.596;9.960;2022-09-27T13:09:01;1.23;;;1.10;;
14342;SDS011;7255;53.596;9.960;2022-09-27T13:11:51;1.25;;;0.88;;
14342;SDS011;7255;53.596;9.960;2022-09-27T13:14:28;1.12;;;1.08;;
14342;SDS011;7255;53.596;9.960;2022-09-27T13:16:59;1.20;;;1.10;;
14342;SDS011;7255;53.596;9.960;2022-09-27T13:19:38;2.30;;;1.02;;
14342;SDS011;7255;53.596;9.960;2022-09-27T13:22:07;1.60;;;1.20;;
14342;SDS011;7255;53.596;9.960;2022-09-27T13:24:41;1.00;;;0.90;;
14342;SDS011;7255;53.596;9.960;2022-09-27T13:33:27;2.35;;;1.20;;
14342;SDS011;7255;53.596;9.960;2022-09-27T13:36:07;1.75;;;1.30;;
14342;SDS011;7255;53.596;9.960;2022-09-27T13:38:51;2.35;;;1.30;;
14342;SDS011;7255;53.596;9.960;2022-09-27T13:41:25;1.85;;;0.90;;
14342;SDS011;7255;53.596;9.960;2022-09-27T13:43:58;1.37;;;1.00;;
14342;SDS011;7255;53.596;9.960;2022-09-27T13:46:32;1.15;;;1.10;;
14342;SDS011;7255;53.596;9.960;2022-09-27T13:49:02;3.08;;;1.33;;
14342;SDS011;7255;53.596;9.960;2022-09-27T13:51:39;1.98;;;1.20;;
14342;SDS011;7255;53.596;9.960;2022-09-27T14:00:08;1.10;;;1.00;;
14342;SDS011;7255;53.596;9.960;2022-09-27T14:02:38;2.62;;;1.15;;
14342;SDS011;7255;53.596;9.960;2022-09-27T14:05:19;1.42;;;1.10;;
14342;SDS011;7255;53.596;9.960;2022-09-27T14:07:49;1.02;;;1.00;;
14342;SDS011;7255;53.596;9.960;2022-09-27T14:10:17;1.50;;;1.10;;
14342;SDS011;7255;53.596;9.960;2022-09-27T14:12:46;2.10;;;1.10;;
14342;SDS011;7255;53.596;9.960;2022-09-27T14:15:16;1.75;;;1.00;;
14342;SDS011;7255;53.596;9.960;2022-09-27T14:17:45;3.20;;;1.10;;
14342;SDS011;7255;53.596;9.960;2022-09-27T14:22:59;2.28;;;1.30;;
14342;SDS011;7255;53.596;9.960;2022-09-27T14:25:27;1.58;;;1.30;;
14342;SDS011;7255;53.596;9.960;2022-09-27T14:27:53;1.35;;;1.20;;
14342;SDS011;7255;53.596;9.960;2022-09-27T14:30:23;3.60;;;1.48;;
14342;SDS011;7255;53.596;9.960;2022-09-27T14:32:52;2.87;;;1.50;;
14342;SDS011;7255;53.596;9.960;2022-09-27T14:35:23;2.90;;;1.00;;
14342;SDS011;7255;53.596;9.960;2022-09-27T14:38:10;1.35;;;1.00;;
14342;SDS011;7255;53.596;9.960;2022-09-27T14:40:40;4.18;;;1.42;;
14342;SDS011;7255;53.596;9.960;2022-09-27T14:43:09;1.35;;;1.25;;
14342;SDS011;7255;53.596;9.960;2022-09-27T14:45:40;1.55;;;1.30;;
14342;SDS011;7255;53.596;9.960;2022-09-27T14:48:16;1.20;;;1.10;;
14342;SDS011;7255;53.596;9.960;2022-09-27T14:50:51;2.42;;;1.33;;
14342;SDS011;7255;53.596;9.960;2022-09-27T14:53:22;2.28;;;1.30;;
14342;SDS011;7255;53.596;9.960;2022-09-27T14:55:49;1.85;;;1.20;;
14342;SDS011;7255;53.596;9.960;2022-09-27T14:58:17;1.42;;;1.20;;
14342;SDS011;7255;53.596;9.960;2022-09-27T15:00:44;2.25;;;1.15;;
14342;SDS011;7255;53.596;9.960;2022-09-27T15:03:16;1.35;;;1.25;;
14342;SDS011;7255;53.596;9.960;2022-09-27T15:05:48;2.62;;;1.23;;
14342;SDS011;7255;53.596;9.960;2022-09-27T15:08:15;2.15;;;1.05;;
14342;SDS011;7255;53.596;9.960;2022-09-27T15:10:44;4.03;;;1.10;;
14342;SDS011;7255;53.596;9.960;2022-09-27T15:13:11;1.67;;;1.55;;
14342;SDS011;7255;53.596;9.960;2022-09-27T15:15:41;1.92;;;1.00;;
14342;SDS011;7255;53.596;9.960;2022-09-27T15:20:56;1.20;;;1.02;;
14342;SDS011;7255;53.596;9.960;2022-09-27T15:23:25;1.62;;;1.10;;
14342;SDS011;7255;53.596;9.960;2022-09-27T15:25:57;1.67;;;1.10;;
14342;SDS011;7255;53.596;9.960;2022-09-27T15:28:28;2.10;;;1.20;;
14342;SDS011;7255;53.596;9.960;2022-09-27T15:30:56;3.72;;;1.10;;
14342;SDS011;7255;53.596;9.960;2022-09-27T15:33:24;1.77;;;1.10;;
14342;SDS011;7255;53.596;9.960;2022-09-27T15:35:53;1.95;;;1.20;;
14342;SDS011;7255;53.596;9.960;2022-09-27T15:38:22;1.98;;;1.05;;
14342;SDS011;7255;53.596;9.960;2022-09-27T15:43:37;1.50;;;1.40;;
14342;SDS011;7255;53.596;9.960;2022-09-27T15:51:45;1.60;;;1.20;;
14342;SDS011;7255;53.596;9.960;2022-09-27T15:54:12;2.03;;;1.12;;